sensor_id;sensor_type;location;lat;lon;timestamp;P1;durP1;ratioP1;P2;durP2;ratioP2
6420;SDS011;3243;50.958;7.012;2023-06-14T00:01:58;7.47;;;5.50;;
6420;SDS011;3243;50.958;7.012;2023-06-14T00:04:25;8.70;;;6.10;;
6420;SDS011;3243;50.958;7.012;2023-06-14T00:06:52;7.03;;;5.50;;
6420;SDS011;3243;50.958;7.012;2023-06-14T00:09:20;5.88;;;5.28;;
6420;SDS011;3243;50.958;7.012;2023-06-14T00:11:47;8.00;;;5.78;;
6420;SDS011;3243;50.958;7.012;2023-06-14T00:14:14;6.77;;;5.50;;
6420;SDS011;3243;50.958;7.012;2023-06-14T00:16:41;7.15;;;5.70;;
6420;SDS011;3243;50.958;7.012;2023-06-14T00:19:09;7.80;;;5.68;;
6420;SDS011;3243;50.958;7.012;2023-06-14T00:21:37;9.43;;;5.70;;
6420;SDS011;3243;50.958;7.012;2023-06-14T00:24:04;6.60;;;5.43;;
6420;SDS011;3243;50.958;7.012;2023-06-14T00:26:32;6.90;;;5.55;;
6420;SDS011;3243;50.958;7.012;2023-06-14T00:28:58;7.25;;;5.45;;
6420;SDS011;3243;50.958;7.012;2023-06-14T00:31:26;5.32;;;4.57;;
6420;SDS011;3243;50.958;7.012;2023-06-14T00:33:53;6.63;;;5.07;;
6420;SDS011;3243;50.958;7.012;2023-06-14T00:36:20;5.90;;;5.32;;
6420;SDS011;3243;50.958;7.012;2023-06-14T00:38:47;7.57;;;5.40;;
6420;SDS011;3243;50.958;7.012;2023-06-14T00:41:14;6.87;;;5.40;;
6420;SDS011;3243;50.958;7.012;2023-06-14T00:43:41;5.73;;;5.13;;
6420;SDS011;3243;50.958;7.012;2023-06-14T00:46:11;6.30;;;5.07;;
6420;SDS011;3243;50.958;7.012;2023-06-14T00:48:38;6.95;;;5.13;;
6420;SDS011;3243;50.958;7.012;2023-06-14T00:51:06;6.22;;;5.20;;
6420;SDS011;3243;50.958;7.012;2023-06-14T00:53:33;6.20;;;5.13;;
6420;SDS011;3243;50.958;7.012;2023-06-14T00:56:02;5.75;;;5.18;;
6420;SDS011;3243;50.958;7.012;2023-06-14T00:58:29;7.43;;;5.15;;
6420;SDS011;3243;50.958;7.012;2023-06-14T01:00:57;5.97;;;4.77;;
6420;SDS011;3243;50.958;7.012;2023-06-14T01:03:24;5.83;;;5.10;;
6420;SDS011;3243;50.958;7.012;2023-06-14T01:05:53;7.53;;;5.53;;
6420;SDS011;3243;50.958;7.012;2023-06-14T01:09:21;7.82;;;5.55;;
6420;SDS011;3243;50.958;7.012;2023-06-14T01:14:47;6.22;;;5.35;;
6420;SDS011;3243;50.958;7.012;2023-06-14T01:17:16;5.88;;;5.10;;
6420;SDS011;3243;50.958;7.012;2023-06-14T01:19:43;6.70;;;4.77;;
6420;SDS011;3243;50.958;7.012;2023-06-14T01:22:11;6.25;;;4.95;;
6420;SDS011;3243;50.958;7.012;2023-06-14T01:24:39;6.77;;;5.10;;
6420;SDS011;3243;50.958;7.012;2023-06-14T01:27:11;6.50;;;5.25;;
6420;SDS011;3243;50.958;7.012;2023-06-14T01:29:39;6.60;;;5.27;;
6420;SDS011;3243;50.958;7.012;2023-06-14T01:32:12;6.25;;;5.20;;
6420;SDS011;3243;50.958;7.012;2023-06-14T01:34:39;6.35;;;5.30;;
6420;SDS011;3243;50.958;7.012;2023-06-14T01:37:06;7.55;;;5.30;;
6420;SDS011;3243;50.958;7.012;2023-06-14T01:39:34;5.83;;;5.20;;
6420;SDS011;3243;50.958;7.012;2023-06-14T01:42:01;6.40;;;5.60;;
6420;SDS011;3243;50.958;7.012;2023-06-14T01:44:29;8.47;;;5.20;;
6420;SDS011;3243;50.958;7.012;2023-06-14T01:46:57;8.87;;;5.70;;
6420;SDS011;3243;50.958;7.012;2023-06-14T01:49:25;6.30;;;4.80;;
6420;SDS011;3243;50.958;7.012;2023-06-14T01:51:52;7.37;;;5.40;;
6420;SDS011;3243;50.958;7.012;2023-06-14T01:54:19;7.63;;;5.53;;
6420;SDS011;3243;50.958;7.012;2023-06-14T01:56:47;8.05;;;5.57;;
6420;SDS011;3243;50.958;7.012;2023-06-14T01:59:15;7.37;;;5.37;;
6420;SDS011;3243;50.958;7.012;2023-06-14T02:01:42;6.67;;;5.10;;
6420;SDS011;3243;50.958;7.012;2023-06-14T02:04:09;6.85;;;5.47;;
6420;SDS011;3243;50.958;7.012;2023-06-14T02:06:36;6.37;;;5.47;;
6420;SDS011;3243;50.958;7.012;2023-06-14T02:09:03;9.00;;;5.67;;
6420;SDS011;3243;50.958;7.012;2023-06-14T02:11:30;5.70;;;4.97;;
6420;SDS011;3243;50.958;7.012;2023-06-14T02:13:57;7.00;;;5.80;;
6420;SDS011;3243;50.958;7.012;2023-06-14T02:16:26;8.53;;;5.53;;
6420;SDS011;3243;50.958;7.012;2023-06-14T02:18:55;6.18;;;5.53;;
6420;SDS011;3243;50.958;7.012;2023-06-14T02:21:23;6.40;;;5.37;;
6420;SDS011;3243;50.958;7.012;2023-06-14T02:23:50;5.70;;;5.10;;
6420;SDS011;3243;50.958;7.012;2023-06-14T02:26:17;8.27;;;5.37;;
6420;SDS011;3243;50.958;7.012;2023-06-14T02:28:45;6.23;;;4.97;;
6420;SDS011;3243;50.958;7.012;2023-06-14T02:31:11;7.43;;;5.17;;
6420;SDS011;3243;50.958;7.012;2023-06-14T02:33:38;7.37;;;4.83;;
6420;SDS011;3243;50.958;7.012;2023-06-14T02:36:05;7.53;;;5.27;;
6420;SDS011;3243;50.958;7.012;2023-06-14T02:38:32;6.15;;;5.53;;
6420;SDS011;3243;50.958;7.012;2023-06-14T02:40:59;7.30;;;5.03;;
6420;SDS011;3243;50.958;7.012;2023-06-14T02:43:28;6.70;;;5.40;;
6420;SDS011;3243;50.958;7.012;2023-06-14T02:45:56;7.53;;;4.90;;
6420;SDS011;3243;50.958;7.012;2023-06-14T02:48:22;6.10;;;4.90;;
6420;SDS011;3243;50.958;7.012;2023-06-14T02:50:50;6.77;;;5.17;;
6420;SDS011;3243;50.958;7.012;2023-06-14T02:53:17;9.73;;;5.07;;
6420;SDS011;3243;50.958;7.012;2023-06-14T02:55:44;7.97;;;5.17;;
6420;SDS011;3243;50.958;7.012;2023-06-14T02:58:13;6.40;;;4.87;;
6420;SDS011;3243;50.958;7.012;2023-06-14T03:00:40;5.67;;;4.37;;
6420;SDS011;3243;50.958;7.012;2023-06-14T03:03:07;6.83;;;4.70;;
6420;SDS011;3243;50.958;7.012;2023-06-14T03:05:46;5.83;;;5.10;;
6420;SDS011;3243;50.958;7.012;2023-06-14T03:08:16;6.87;;;5.00;;
6420;SDS011;3243;50.958;7.012;2023-06-14T03:10:45;7.33;;;5.10;;
6420;SDS011;3243;50.958;7.012;2023-06-14T03:13:13;7.13;;;5.10;;
6420;SDS011;3243;50.958;7.012;2023-06-14T03:15:40;7.07;;;4.60;;
6420;SDS011;3243;50.958;7.012;2023-06-14T03:18:08;8.47;;;5.53;;
6420;SDS011;3243;50.958;7.012;2023-06-14T03:20:35;7.50;;;5.10;;
6420;SDS011;3243;50.958;7.012;2023-06-14T03:23:03;5.47;;;4.68;;
6420;SDS011;3243;50.958;7.012;2023-06-14T03:25:31;6.80;;;4.83;;
6420;SDS011;3243;50.958;7.012;2023-06-14T03:28:01;7.43;;;4.80;;
6420;SDS011;3243;50.958;7.012;2023-06-14T03:30:29;6.37;;;4.73;;
6420;SDS011;3243;50.958;7.012;2023-06-14T03:32:57;5.60;;;4.73;;
6420;SDS011;3243;50.958;7.012;2023-06-14T03:35:24;6.47;;;4.83;;
6420;SDS011;3243;50.958;7.012;2023-06-14T03:37:51;6.67;;;4.23;;
6420;SDS011;3243;50.958;7.012;2023-06-14T03:40:18;5.30;;;4.80;;
6420;SDS011;3243;50.958;7.012;2023-06-14T03:42:46;5.20;;;4.70;;
6420;SDS011;3243;50.958;7.012;2023-06-14T03:45:13;6.43;;;4.77;;
6420;SDS011;3243;50.958;7.012;2023-06-14T03:47:40;6.03;;;4.70;;
6420;SDS011;3243;50.958;7.012;2023-06-14T03:50:07;6.67;;;4.90;;
6420;SDS011;3243;50.958;7.012;2023-06-14T03:52:34;5.40;;;4.47;;
6420;SDS011;3243;50.958;7.012;2023-06-14T03:55:02;6.13;;;4.90;;
6420;SDS011;3243;50.958;7.012;2023-06-14T03:57:33;6.93;;;4.77;;
6420;SDS011;3243;50.958;7.012;2023-06-14T03:59:59;5.47;;;4.80;;
6420;SDS011;3243;50.958;7.012;2023-06-14T04:02:27;7.57;;;4.60;;
6420;SDS011;3243;50.958;7.012;2023-06-14T04:04:55;6.53;;;4.77;;
6420;SDS011;3243;50.958;7.012;2023-06-14T04:07:22;7.07;;;5.20;;
6420;SDS011;3243;50.958;7.012;2023-06-14T04:09:49;6.77;;;4.83;;
6420;SDS011;3243;50.958;7.012;2023-06-14T04:12:16;7.87;;;5.00;;
6420;SDS011;3243;50.958;7.012;2023-06-14T04:14:43;6.57;;;4.93;;
6420;SDS011;3243;50.958;7.012;2023-06-14T04:17:10;6.70;;;5.17;;
6420;SDS011;3243;50.958;7.012;2023-06-14T04:19:37;7.80;;;5.53;;
6420;SDS011;3243;50.958;7.012;2023-06-14T04:22:04;7.43;;;5.30;;
6420;SDS011;3243;50.958;7.012;2023-06-14T04:24:32;5.60;;;4.90;;
6420;SDS011;3243;50.958;7.012;2023-06-14T04:27:01;6.20;;;5.53;;
6420;SDS011;3243;50.958;7.012;2023-06-14T04:29:28;6.70;;;4.47;;
6420;SDS011;3243;50.958;7.012;2023-06-14T04:31:55;6.78;;;5.32;;
6420;SDS011;3243;50.958;7.012;2023-06-14T04:34:28;7.27;;;5.20;;
6420;SDS011;3243;50.958;7.012;2023-06-14T04:37:00;10.73;;;5.60;;
6420;SDS011;3243;50.958;7.012;2023-06-14T04:39:27;8.60;;;4.87;;
6420;SDS011;3243;50.958;7.012;2023-06-14T04:41:54;7.67;;;5.20;;
6420;SDS011;3243;50.958;7.012;2023-06-14T04:44:23;8.45;;;5.43;;
6420;SDS011;3243;50.958;7.012;2023-06-14T04:46:56;5.97;;;4.93;;
6420;SDS011;3243;50.958;7.012;2023-06-14T04:49:25;7.75;;;4.60;;
6420;SDS011;3243;50.958;7.012;2023-06-14T04:51:53;8.10;;;4.90;;
6420;SDS011;3243;50.958;7.012;2023-06-14T04:54:23;7.47;;;4.65;;
6420;SDS011;3243;50.958;7.012;2023-06-14T04:56:53;7.53;;;5.27;;
6420;SDS011;3243;50.958;7.012;2023-06-14T04:59:21;7.70;;;4.37;;
6420;SDS011;3243;50.958;7.012;2023-06-14T05:01:49;6.53;;;4.67;;
6420;SDS011;3243;50.958;7.012;2023-06-14T05:04:17;6.63;;;4.68;;
6420;SDS011;3243;50.958;7.012;2023-06-14T05:06:44;5.22;;;4.13;;
6420;SDS011;3243;50.958;7.012;2023-06-14T05:09:14;5.63;;;4.30;;
6420;SDS011;3243;50.958;7.012;2023-06-14T05:11:44;4.57;;;4.10;;
6420;SDS011;3243;50.958;7.012;2023-06-14T05:14:11;7.75;;;4.50;;
6420;SDS011;3243;50.958;7.012;2023-06-14T05:16:38;9.57;;;3.90;;
6420;SDS011;3243;50.958;7.012;2023-06-14T05:19:06;9.63;;;4.70;;
6420;SDS011;3243;50.958;7.012;2023-06-14T05:21:33;5.18;;;4.15;;
6420;SDS011;3243;50.958;7.012;2023-06-14T05:24:07;4.20;;;3.80;;
6420;SDS011;3243;50.958;7.012;2023-06-14T05:26:35;6.05;;;3.90;;
6420;SDS011;3243;50.958;7.012;2023-06-14T05:29:02;5.22;;;4.18;;
6420;SDS011;3243;50.958;7.012;2023-06-14T05:31:29;4.25;;;3.85;;
6420;SDS011;3243;50.958;7.012;2023-06-14T05:33:56;5.60;;;3.50;;
6420;SDS011;3243;50.958;7.012;2023-06-14T05:36:23;6.03;;;4.10;;
6420;SDS011;3243;50.958;7.012;2023-06-14T05:38:50;7.90;;;4.07;;
6420;SDS011;3243;50.958;7.012;2023-06-14T05:41:17;4.00;;;3.58;;
6420;SDS011;3243;50.958;7.012;2023-06-14T05:43:44;7.97;;;4.88;;
6420;SDS011;3243;50.958;7.012;2023-06-14T05:46:11;7.10;;;3.88;;
6420;SDS011;3243;50.958;7.012;2023-06-14T05:48:38;6.20;;;4.03;;
6420;SDS011;3243;50.958;7.012;2023-06-14T05:51:04;5.78;;;3.45;;
6420;SDS011;3243;50.958;7.012;2023-06-14T05:53:34;5.00;;;3.75;;
6420;SDS011;3243;50.958;7.012;2023-06-14T05:56:01;3.97;;;3.38;;
6420;SDS011;3243;50.958;7.012;2023-06-14T05:58:28;4.95;;;3.63;;
6420;SDS011;3243;50.958;7.012;2023-06-14T06:00:54;4.20;;;3.63;;
6420;SDS011;3243;50.958;7.012;2023-06-14T06:03:21;6.78;;;3.10;;
6420;SDS011;3243;50.958;7.012;2023-06-14T06:05:49;6.03;;;3.50;;
6420;SDS011;3243;50.958;7.012;2023-06-14T06:08:15;3.70;;;3.08;;
6420;SDS011;3243;50.958;7.012;2023-06-14T06:10:43;8.70;;;3.15;;
6420;SDS011;3243;50.958;7.012;2023-06-14T06:13:09;3.53;;;3.22;;
6420;SDS011;3243;50.958;7.012;2023-06-14T06:15:37;4.88;;;3.22;;
6420;SDS011;3243;50.958;7.012;2023-06-14T06:18:04;3.80;;;3.40;;
6420;SDS011;3243;50.958;7.012;2023-06-14T06:20:30;4.97;;;3.00;;
6420;SDS011;3243;50.958;7.012;2023-06-14T06:22:58;4.68;;;3.10;;
6420;SDS011;3243;50.958;7.012;2023-06-14T06:25:25;5.45;;;3.70;;
6420;SDS011;3243;50.958;7.012;2023-06-14T06:27:53;5.35;;;3.35;;
6420;SDS011;3243;50.958;7.012;2023-06-14T06:30:22;4.43;;;3.20;;
6420;SDS011;3243;50.958;7.012;2023-06-14T06:32:49;5.82;;;3.15;;
6420;SDS011;3243;50.958;7.012;2023-06-14T06:35:17;5.20;;;2.92;;
6420;SDS011;3243;50.958;7.012;2023-06-14T06:37:43;3.35;;;3.05;;
6420;SDS011;3243;50.958;7.012;2023-06-14T06:40:10;5.38;;;3.20;;
6420;SDS011;3243;50.958;7.012;2023-06-14T06:42:38;6.32;;;3.47;;
6420;SDS011;3243;50.958;7.012;2023-06-14T06:45:05;6.95;;;3.10;;
6420;SDS011;3243;50.958;7.012;2023-06-14T06:47:32;4.00;;;3.00;;
6420;SDS011;3243;50.958;7.012;2023-06-14T06:49:59;4.32;;;2.88;;
6420;SDS011;3243;50.958;7.012;2023-06-14T06:52:26;5.03;;;3.13;;
6420;SDS011;3243;50.958;7.012;2023-06-14T06:54:52;3.63;;;3.10;;
6420;SDS011;3243;50.958;7.012;2023-06-14T06:57:21;4.22;;;3.13;;
6420;SDS011;3243;50.958;7.012;2023-06-14T06:59:51;4.32;;;2.90;;
6420;SDS011;3243;50.958;7.012;2023-06-14T07:02:18;4.82;;;3.20;;
6420;SDS011;3243;50.958;7.012;2023-06-14T07:04:45;4.18;;;2.72;;
6420;SDS011;3243;50.958;7.012;2023-06-14T07:07:11;3.72;;;2.72;;
6420;SDS011;3243;50.958;7.012;2023-06-14T07:09:38;9.18;;;4.03;;
6420;SDS011;3243;50.958;7.012;2023-06-14T07:12:06;5.38;;;3.05;;
6420;SDS011;3243;50.958;7.012;2023-06-14T07:14:34;3.75;;;2.92;;
6420;SDS011;3243;50.958;7.012;2023-06-14T07:17:00;3.95;;;2.80;;
6420;SDS011;3243;50.958;7.012;2023-06-14T07:19:27;5.22;;;3.20;;
6420;SDS011;3243;50.958;7.012;2023-06-14T07:21:54;6.05;;;2.78;;
6420;SDS011;3243;50.958;7.012;2023-06-14T07:24:21;6.80;;;3.05;;
6420;SDS011;3243;50.958;7.012;2023-06-14T07:26:48;4.38;;;2.97;;
6420;SDS011;3243;50.958;7.012;2023-06-14T07:29:15;6.68;;;2.53;;
6420;SDS011;3243;50.958;7.012;2023-06-14T07:31:42;6.93;;;2.80;;
6420;SDS011;3243;50.958;7.012;2023-06-14T07:34:09;5.97;;;2.55;;
6420;SDS011;3243;50.958;7.012;2023-06-14T07:36:36;4.05;;;2.20;;
6420;SDS011;3243;50.958;7.012;2023-06-14T07:39:04;3.70;;;2.25;;
6420;SDS011;3243;50.958;7.012;2023-06-14T07:41:32;4.03;;;2.20;;
6420;SDS011;3243;50.958;7.012;2023-06-14T07:43:59;3.33;;;2.40;;
6420;SDS011;3243;50.958;7.012;2023-06-14T07:46:26;2.63;;;2.00;;
6420;SDS011;3243;50.958;7.012;2023-06-14T07:48:53;2.97;;;2.17;;
6420;SDS011;3243;50.958;7.012;2023-06-14T07:51:20;4.85;;;2.15;;
6420;SDS011;3243;50.958;7.012;2023-06-14T07:53:48;4.38;;;2.25;;
6420;SDS011;3243;50.958;7.012;2023-06-14T07:56:15;5.32;;;2.20;;
6420;SDS011;3243;50.958;7.012;2023-06-14T07:58:41;2.10;;;1.90;;
6420;SDS011;3243;50.958;7.012;2023-06-14T08:01:08;2.53;;;1.92;;
6420;SDS011;3243;50.958;7.012;2023-06-14T08:03:36;2.58;;;2.00;;
6420;SDS011;3243;50.958;7.012;2023-06-14T08:06:03;5.97;;;2.17;;
6420;SDS011;3243;50.958;7.012;2023-06-14T08:08:30;2.15;;;1.95;;
6420;SDS011;3243;50.958;7.012;2023-06-14T08:10:57;2.53;;;1.85;;
6420;SDS011;3243;50.958;7.012;2023-06-14T08:13:24;2.22;;;1.90;;
6420;SDS011;3243;50.958;7.012;2023-06-14T08:15:51;3.17;;;1.90;;
6420;SDS011;3243;50.958;7.012;2023-06-14T08:18:18;3.53;;;2.20;;
6420;SDS011;3243;50.958;7.012;2023-06-14T08:20:45;2.60;;;2.20;;
6420;SDS011;3243;50.958;7.012;2023-06-14T08:23:13;1.95;;;1.85;;
6420;SDS011;3243;50.958;7.012;2023-06-14T08:25:39;3.05;;;2.17;;
6420;SDS011;3243;50.958;7.012;2023-06-14T08:28:06;2.47;;;2.03;;
6420;SDS011;3243;50.958;7.012;2023-06-14T08:30:33;2.28;;;2.08;;
6420;SDS011;3243;50.958;7.012;2023-06-14T08:32:59;2.90;;;1.90;;
6420;SDS011;3243;50.958;7.012;2023-06-14T08:35:41;3.42;;;2.00;;
6420;SDS011;3243;50.958;7.012;2023-06-14T08:38:09;2.70;;;2.38;;
6420;SDS011;3243;50.958;7.012;2023-06-14T08:40:38;2.90;;;2.22;;
6420;SDS011;3243;50.958;7.012;2023-06-14T08:43:05;2.42;;;2.22;;
6420;SDS011;3243;50.958;7.012;2023-06-14T08:45:33;2.38;;;2.10;;
6420;SDS011;3243;50.958;7.012;2023-06-14T08:48:00;3.47;;;2.08;;
6420;SDS011;3243;50.958;7.012;2023-06-14T08:50:28;4.28;;;2.75;;
6420;SDS011;3243;50.958;7.012;2023-06-14T08:52:59;3.30;;;2.30;;
6420;SDS011;3243;50.958;7.012;2023-06-14T08:55:30;2.50;;;2.30;;
6420;SDS011;3243;50.958;7.012;2023-06-14T08:58:01;2.78;;;2.58;;
6420;SDS011;3243;50.958;7.012;2023-06-14T09:00:29;2.25;;;2.03;;
6420;SDS011;3243;50.958;7.012;2023-06-14T09:02:57;4.97;;;2.10;;
6420;SDS011;3243;50.958;7.012;2023-06-14T09:05:24;1.80;;;1.70;;
6420;SDS011;3243;50.958;7.012;2023-06-14T09:07:52;4.13;;;2.17;;
6420;SDS011;3243;50.958;7.012;2023-06-14T09:10:21;3.75;;;2.10;;
6420;SDS011;3243;50.958;7.012;2023-06-14T09:12:49;3.60;;;1.98;;
6420;SDS011;3243;50.958;7.012;2023-06-14T09:15:16;1.88;;;1.77;;
6420;SDS011;3243;50.958;7.012;2023-06-14T09:17:43;2.20;;;2.00;;
6420;SDS011;3243;50.958;7.012;2023-06-14T09:20:10;3.92;;;2.22;;
6420;SDS011;3243;50.958;7.012;2023-06-14T09:22:40;2.20;;;2.00;;
6420;SDS011;3243;50.958;7.012;2023-06-14T09:25:07;3.03;;;2.20;;
6420;SDS011;3243;50.958;7.012;2023-06-14T09:27:39;3.13;;;2.03;;
6420;SDS011;3243;50.958;7.012;2023-06-14T09:30:08;4.30;;;2.15;;
6420;SDS011;3243;50.958;7.012;2023-06-14T09:32:36;3.83;;;2.30;;
6420;SDS011;3243;50.958;7.012;2023-06-14T09:35:07;2.83;;;2.45;;
6420;SDS011;3243;50.958;7.012;2023-06-14T09:37:35;2.30;;;2.10;;
6420;SDS011;3243;50.958;7.012;2023-06-14T09:40:04;2.42;;;2.22;;
6420;SDS011;3243;50.958;7.012;2023-06-14T09:42:33;5.93;;;2.20;;
6420;SDS011;3243;50.958;7.012;2023-06-14T09:45:02;3.00;;;2.13;;
6420;SDS011;3243;50.958;7.012;2023-06-14T09:47:30;2.75;;;2.20;;
6420;SDS011;3243;50.958;7.012;2023-06-14T09:49:57;4.38;;;1.92;;
6420;SDS011;3243;50.958;7.012;2023-06-14T09:52:24;3.78;;;2.03;;
6420;SDS011;3243;50.958;7.012;2023-06-14T09:54:52;2.63;;;2.10;;
6420;SDS011;3243;50.958;7.012;2023-06-14T09:57:22;2.08;;;1.92;;
6420;SDS011;3243;50.958;7.012;2023-06-14T09:59:52;2.28;;;2.08;;
6420;SDS011;3243;50.958;7.012;2023-06-14T10:02:26;2.30;;;2.10;;
6420;SDS011;3243;50.958;7.012;2023-06-14T10:05:05;3.97;;;2.67;;
6420;SDS011;3243;50.958;7.012;2023-06-14T10:07:36;3.47;;;2.00;;
6420;SDS011;3243;50.958;7.012;2023-06-14T10:10:06;3.42;;;1.92;;
6420;SDS011;3243;50.958;7.012;2023-06-14T10:12:34;3.42;;;2.25;;
6420;SDS011;3243;50.958;7.012;2023-06-14T10:15:01;2.95;;;2.00;;
6420;SDS011;3243;50.958;7.012;2023-06-14T10:23:00;2.60;;;2.03;;
6420;SDS011;3243;50.958;7.012;2023-06-14T10:25:33;2.47;;;1.80;;
6420;SDS011;3243;50.958;7.012;2023-06-14T10:31:04;2.20;;;2.00;;
6420;SDS011;3243;50.958;7.012;2023-06-14T10:33:31;2.42;;;2.03;;
6420;SDS011;3243;50.958;7.012;2023-06-14T10:38:57;4.70;;;1.88;;
6420;SDS011;3243;50.958;7.012;2023-06-14T10:41:25;2.10;;;1.88;;
6420;SDS011;3243;50.958;7.012;2023-06-14T10:46:48;3.17;;;2.15;;
6420;SDS011;3243;50.958;7.012;2023-06-14T10:49:16;3.03;;;2.33;;
6420;SDS011;3243;50.958;7.012;2023-06-14T10:51:49;2.20;;;1.95;;
6420;SDS011;3243;50.958;7.012;2023-06-14T10:54:20;2.90;;;2.10;;
6420;SDS011;3243;50.958;7.012;2023-06-14T10:56:47;2.20;;;2.00;;
6420;SDS011;3243;50.958;7.012;2023-06-14T10:59:18;2.35;;;2.15;;
6420;SDS011;3243;50.958;7.012;2023-06-14T11:04:29;2.92;;;2.13;;
6420;SDS011;3243;50.958;7.012;2023-06-14T11:07:18;2.45;;;2.25;;
6420;SDS011;3243;50.958;7.012;2023-06-14T11:12:31;2.47;;;2.28;;
6420;SDS011;3243;50.958;7.012;2023-06-14T11:14:59;2.60;;;2.20;;
6420;SDS011;3243;50.958;7.012;2023-06-14T11:17:27;2.97;;;1.95;;
6420;SDS011;3243;50.958;7.012;2023-06-14T11:22:41;2.80;;;2.20;;
6420;SDS011;3243;50.958;7.012;2023-06-14T11:25:09;2.17;;;1.98;;
6420;SDS011;3243;50.958;7.012;2023-06-14T11:27:36;4.15;;;2.20;;
6420;SDS011;3243;50.958;7.012;2023-06-14T11:30:06;4.40;;;2.35;;
6420;SDS011;3243;50.958;7.012;2023-06-14T11:32:34;5.00;;;2.30;;
6420;SDS011;3243;50.958;7.012;2023-06-14T11:35:00;4.55;;;2.20;;
6420;SDS011;3243;50.958;7.012;2023-06-14T11:37:28;2.60;;;2.10;;
6420;SDS011;3243;50.958;7.012;2023-06-14T11:40:02;3.08;;;2.50;;
6420;SDS011;3243;50.958;7.012;2023-06-14T11:42:31;2.45;;;2.10;;
6420;SDS011;3243;50.958;7.012;2023-06-14T11:44:58;2.50;;;2.20;;
6420;SDS011;3243;50.958;7.012;2023-06-14T11:47:40;5.10;;;2.33;;
6420;SDS011;3243;50.958;7.012;2023-06-14T11:50:08;3.03;;;2.10;;
6420;SDS011;3243;50.958;7.012;2023-06-14T11:52:36;2.17;;;1.90;;
6420;SDS011;3243;50.958;7.012;2023-06-14T11:55:04;4.43;;;1.95;;
6420;SDS011;3243;50.958;7.012;2023-06-14T11:57:34;3.60;;;2.90;;
6420;SDS011;3243;50.958;7.012;2023-06-14T12:00:08;2.92;;;2.00;;
6420;SDS011;3243;50.958;7.012;2023-06-14T12:02:38;3.40;;;1.88;;
6420;SDS011;3243;50.958;7.012;2023-06-14T12:05:09;2.95;;;2.00;;
6420;SDS011;3243;50.958;7.012;2023-06-14T12:07:39;3.25;;;1.92;;
6420;SDS011;3243;50.958;7.012;2023-06-14T12:10:07;2.00;;;1.80;;
6420;SDS011;3243;50.958;7.012;2023-06-14T12:12:37;2.00;;;1.80;;
6420;SDS011;3243;50.958;7.012;2023-06-14T12:15:06;3.03;;;2.10;;
6420;SDS011;3243;50.958;7.012;2023-06-14T12:17:34;2.83;;;1.85;;
6420;SDS011;3243;50.958;7.012;2023-06-14T12:20:05;2.17;;;1.77;;
6420;SDS011;3243;50.958;7.012;2023-06-14T12:22:37;2.85;;;1.90;;
6420;SDS011;3243;50.958;7.012;2023-06-14T12:25:04;2.35;;;2.15;;
6420;SDS011;3243;50.958;7.012;2023-06-14T12:27:32;2.13;;;1.92;;
6420;SDS011;3243;50.958;7.012;2023-06-14T12:29:59;1.92;;;1.83;;
6420;SDS011;3243;50.958;7.012;2023-06-14T12:32:27;2.22;;;1.80;;
6420;SDS011;3243;50.958;7.012;2023-06-14T12:34:55;2.95;;;1.90;;
6420;SDS011;3243;50.958;7.012;2023-06-14T12:37:23;2.70;;;1.80;;
6420;SDS011;3243;50.958;7.012;2023-06-14T12:39:51;1.70;;;1.60;;
6420;SDS011;3243;50.958;7.012;2023-06-14T12:42:18;2.30;;;1.90;;
6420;SDS011;3243;50.958;7.012;2023-06-14T12:44:45;2.45;;;1.90;;
6420;SDS011;3243;50.958;7.012;2023-06-14T12:47:12;2.42;;;1.77;;
6420;SDS011;3243;50.958;7.012;2023-06-14T12:49:39;1.92;;;1.80;;
6420;SDS011;3243;50.958;7.012;2023-06-14T12:52:07;2.47;;;1.65;;
6420;SDS011;3243;50.958;7.012;2023-06-14T12:54:34;2.65;;;1.90;;
6420;SDS011;3243;50.958;7.012;2023-06-14T12:57:06;2.47;;;1.67;;
6420;SDS011;3243;50.958;7.012;2023-06-14T12:59:34;1.85;;;1.70;;
6420;SDS011;3243;50.958;7.012;2023-06-14T13:02:13;1.77;;;1.67;;
6420;SDS011;3243;50.958;7.012;2023-06-14T13:04:41;1.90;;;1.70;;
6420;SDS011;3243;50.958;7.012;2023-06-14T13:07:09;2.15;;;1.98;;
6420;SDS011;3243;50.958;7.012;2023-06-14T13:09:41;2.58;;;2.00;;
6420;SDS011;3243;50.958;7.012;2023-06-14T13:12:09;1.83;;;1.70;;
6420;SDS011;3243;50.958;7.012;2023-06-14T13:14:37;6.10;;;2.17;;
6420;SDS011;3243;50.958;7.012;2023-06-14T13:17:09;3.85;;;1.80;;
6420;SDS011;3243;50.958;7.012;2023-06-14T13:19:37;1.70;;;1.60;;
6420;SDS011;3243;50.958;7.012;2023-06-14T13:22:04;2.90;;;1.92;;
6420;SDS011;3243;50.958;7.012;2023-06-14T13:24:31;2.60;;;1.90;;
6420;SDS011;3243;50.958;7.012;2023-06-14T13:26:58;2.80;;;1.88;;
6420;SDS011;3243;50.958;7.012;2023-06-14T13:29:25;2.20;;;2.00;;
6420;SDS011;3243;50.958;7.012;2023-06-14T13:31:53;3.83;;;2.20;;
6420;SDS011;3243;50.958;7.012;2023-06-14T13:34:21;2.47;;;1.90;;
6420;SDS011;3243;50.958;7.012;2023-06-14T13:36:49;2.72;;;2.00;;
6420;SDS011;3243;50.958;7.012;2023-06-14T13:39:16;3.00;;;2.08;;
6420;SDS011;3243;50.958;7.012;2023-06-14T13:41:43;2.10;;;2.00;;
6420;SDS011;3243;50.958;7.012;2023-06-14T13:44:10;2.45;;;2.25;;
6420;SDS011;3243;50.958;7.012;2023-06-14T13:46:42;3.03;;;2.17;;
6420;SDS011;3243;50.958;7.012;2023-06-14T13:49:09;2.97;;;2.22;;
6420;SDS011;3243;50.958;7.012;2023-06-14T13:51:36;3.78;;;2.13;;
6420;SDS011;3243;50.958;7.012;2023-06-14T13:54:04;2.85;;;2.30;;
6420;SDS011;3243;50.958;7.012;2023-06-14T13:56:31;2.30;;;2.10;;
6420;SDS011;3243;50.958;7.012;2023-06-14T13:58:58;3.05;;;2.00;;
6420;SDS011;3243;50.958;7.012;2023-06-14T14:01:26;4.13;;;2.15;;
6420;SDS011;3243;50.958;7.012;2023-06-14T14:03:55;3.58;;;2.20;;
6420;SDS011;3243;50.958;7.012;2023-06-14T14:06:22;3.55;;;1.98;;
6420;SDS011;3243;50.958;7.012;2023-06-14T14:08:49;3.42;;;2.10;;
6420;SDS011;3243;50.958;7.012;2023-06-14T14:11:17;3.35;;;2.20;;
6420;SDS011;3243;50.958;7.012;2023-06-14T14:13:44;5.53;;;2.00;;
6420;SDS011;3243;50.958;7.012;2023-06-14T14:16:11;2.60;;;2.17;;
6420;SDS011;3243;50.958;7.012;2023-06-14T14:18:39;2.30;;;2.10;;
6420;SDS011;3243;50.958;7.012;2023-06-14T14:21:06;2.67;;;2.20;;
6420;SDS011;3243;50.958;7.012;2023-06-14T14:23:33;2.95;;;2.00;;
6420;SDS011;3243;50.958;7.012;2023-06-14T14:26:01;4.15;;;2.10;;
6420;SDS011;3243;50.958;7.012;2023-06-14T14:28:30;3.03;;;2.10;;
6420;SDS011;3243;50.958;7.012;2023-06-14T14:30:58;3.53;;;2.10;;
6420;SDS011;3243;50.958;7.012;2023-06-14T14:33:25;1.98;;;1.80;;
6420;SDS011;3243;50.958;7.012;2023-06-14T14:35:53;2.53;;;2.30;;
6420;SDS011;3243;50.958;7.012;2023-06-14T14:38:19;3.88;;;2.10;;
6420;SDS011;3243;50.958;7.012;2023-06-14T14:40:48;2.33;;;2.03;;
6420;SDS011;3243;50.958;7.012;2023-06-14T14:43:15;2.90;;;2.17;;
6420;SDS011;3243;50.958;7.012;2023-06-14T14:45:42;2.38;;;2.08;;
6420;SDS011;3243;50.958;7.012;2023-06-14T14:48:08;2.67;;;2.20;;
6420;SDS011;3243;50.958;7.012;2023-06-14T14:50:36;4.00;;;2.35;;
6420;SDS011;3243;50.958;7.012;2023-06-14T14:53:03;4.43;;;2.40;;
6420;SDS011;3243;50.958;7.012;2023-06-14T14:55:31;2.22;;;2.08;;
6420;SDS011;3243;50.958;7.012;2023-06-14T14:58:00;3.67;;;2.10;;
6420;SDS011;3243;50.958;7.012;2023-06-14T15:00:28;2.92;;;2.47;;
6420;SDS011;3243;50.958;7.012;2023-06-14T15:02:55;2.78;;;2.10;;
6420;SDS011;3243;50.958;7.012;2023-06-14T15:05:22;2.50;;;2.13;;
6420;SDS011;3243;50.958;7.012;2023-06-14T15:07:49;3.05;;;2.30;;
6420;SDS011;3243;50.958;7.012;2023-06-14T15:10:16;3.30;;;1.90;;
6420;SDS011;3243;50.958;7.012;2023-06-14T15:12:44;2.22;;;2.03;;
6420;SDS011;3243;50.958;7.012;2023-06-14T15:15:11;2.47;;;2.20;;
6420;SDS011;3243;50.958;7.012;2023-06-14T15:17:38;3.38;;;2.22;;
6420;SDS011;3243;50.958;7.012;2023-06-14T15:20:05;2.80;;;2.60;;
6420;SDS011;3243;50.958;7.012;2023-06-14T15:22:33;3.53;;;2.40;;
6420;SDS011;3243;50.958;7.012;2023-06-14T15:24:59;2.50;;;2.30;;
6420;SDS011;3243;50.958;7.012;2023-06-14T15:27:26;4.03;;;2.05;;
6420;SDS011;3243;50.958;7.012;2023-06-14T15:29:53;4.13;;;2.25;;
6420;SDS011;3243;50.958;7.012;2023-06-14T15:32:21;2.50;;;2.08;;
6420;SDS011;3243;50.958;7.012;2023-06-14T15:34:48;3.55;;;2.03;;
6420;SDS011;3243;50.958;7.012;2023-06-14T15:37:15;2.30;;;2.10;;
6420;SDS011;3243;50.958;7.012;2023-06-14T15:39:42;3.45;;;3.15;;
6420;SDS011;3243;50.958;7.012;2023-06-14T15:42:08;2.55;;;2.20;;
6420;SDS011;3243;50.958;7.012;2023-06-14T15:44:35;5.05;;;2.40;;
6420;SDS011;3243;50.958;7.012;2023-06-14T15:47:02;3.35;;;2.40;;